createdAt,value
2022-09-21T00:01:06.318Z,3.90
2022-09-21T00:03:34.501Z,4.10
2022-09-21T00:06:07.272Z,3.90
2022-09-21T00:08:36.937Z,4.20
2022-09-21T00:11:06.601Z,4.20
2022-09-21T00:13:37.793Z,4.20
2022-09-21T00:16:07.938Z,3.90
2022-09-21T00:18:36.264Z,3.90
2022-09-21T00:21:08.380Z,3.90
2022-09-21T00:23:38.579Z,4.10
2022-09-21T00:26:08.528Z,4.00
2022-09-21T00:28:36.804Z,4.20
2022-09-21T00:31:06.805Z,4.50
2022-09-21T00:33:35.394Z,4.50
2022-09-21T00:36:05.107Z,4.50
2022-09-21T00:38:33.432Z,4.60
2022-09-21T00:41:02.837Z,4.50
2022-09-21T00:43:30.860Z,4.50
2022-09-21T00:46:03.066Z,4.60
2022-09-21T00:48:31.615Z,4.70
2022-09-21T00:51:04.170Z,4.70
2022-09-21T00:53:33.303Z,4.70
2022-09-21T00:56:05.072Z,4.80
2022-09-21T00:58:38.150Z,4.70
2022-09-21T01:01:06.225Z,4.80
2022-09-21T01:03:34.408Z,4.70
2022-09-21T01:06:03.032Z,4.50
2022-09-21T01:08:31.620Z,4.50
2022-09-21T01:11:26.188Z,4.40
2022-09-21T01:14:12.485Z,4.40
2022-09-21T01:16:46.423Z,4.40
2022-09-21T01:19:34.956Z,4.10
2022-09-21T01:22:14.046Z,4.20
2022-09-21T01:25:00.001Z,4.30
2022-09-21T01:27:44.455Z,4.10
2022-09-21T01:30:15.682Z,4.20
2022-09-21T01:32:47.677Z,4.00
2022-09-21T01:35:20.793Z,4.20
2022-09-21T01:37:53.193Z,4.20
2022-09-21T01:40:25.210Z,4.20
2022-09-21T01:42:55.189Z,4.10
2022-09-21T01:45:29.438Z,4.30
2022-09-21T01:48:00.472Z,4.10
2022-09-21T01:50:33.949Z,3.90
2022-09-21T01:53:06.721Z,3.70
2022-09-21T01:55:41.259Z,3.60
2022-09-21T01:58:17.513Z,3.60
2022-09-21T02:00:49.730Z,3.40
2022-09-21T02:03:23.617Z,3.60
2022-09-21T02:05:51.713Z,3.50
2022-09-21T02:08:19.881Z,3.60
2022-09-21T02:10:51.787Z,3.60
2022-09-21T02:13:21.824Z,3.60
2022-09-21T02:16:03.923Z,3.90
2022-09-21T02:18:41.350Z,3.90
2022-09-21T02:21:19.786Z,3.90
2022-09-21T02:23:55.001Z,3.80
2022-09-21T02:26:28.948Z,3.70
2022-09-21T02:29:02.931Z,3.70
2022-09-21T02:31:37.905Z,3.50
2022-09-21T02:34:11.880Z,3.50
2022-09-21T02:36:46.066Z,3.40
2022-09-21T02:39:18.467Z,3.40
2022-09-21T02:41:57.821Z,3.40
2022-09-21T02:44:33.139Z,3.50
2022-09-21T02:47:09.178Z,3.50
2022-09-21T02:49:40.822Z,3.50
2022-09-21T02:52:14.019Z,3.30
2022-09-21T02:54:46.276Z,3.30
2022-09-21T02:57:17.168Z,3.40
2022-09-21T02:59:45.708Z,3.40
2022-09-21T03:02:15.436Z,3.30
2022-09-21T03:04:48.212Z,3.50
2022-09-21T03:07:16.945Z,3.30
2022-09-21T03:09:45.684Z,3.20
2022-09-21T03:12:13.866Z,3.20
2022-09-21T03:14:41.923Z,3.30
2022-09-21T03:17:10.040Z,3.30
2022-09-21T03:19:39.447Z,3.20
2022-09-21T03:22:07.507Z,3.20
2022-09-21T03:24:47.478Z,3.30
2022-09-21T03:27:16.684Z,3.40
2022-09-21T03:29:45.152Z,3.30
2022-09-21T03:32:13.824Z,3.40
2022-09-21T03:34:43.390Z,3.50
2022-09-21T03:37:11.810Z,3.40
2022-09-21T03:39:39.802Z,3.40
2022-09-21T03:42:09.869Z,3.40
2022-09-21T03:44:38.441Z,3.30
2022-09-21T03:47:07.516Z,3.40
2022-09-21T03:49:35.856Z,3.50
2022-09-21T03:52:05.794Z,3.40
2022-09-21T03:54:33.818Z,3.40
2022-09-21T03:57:02.288Z,3.40
2022-09-21T03:59:30.268Z,3.40
2022-09-21T04:01:58.336Z,3.40
2022-09-21T04:04:26.421Z,3.40
2022-09-21T04:06:54.458Z,3.30
2022-09-21T04:09:23.895Z,3.30
2022-09-21T04:11:52.321Z,3.30
2022-09-21T04:14:20.353Z,3.20
2022-09-21T04:16:48.345Z,3.10
2022-09-21T04:19:16.576Z,3.00
2022-09-21T04:21:44.718Z,3.00
2022-09-21T04:24:12.989Z,2.90
2022-09-21T04:26:42.419Z,2.90
2022-09-21T04:29:11.001Z,2.90
2022-09-21T04:31:39.579Z,3.00
2022-09-21T04:34:07.704Z,2.90
2022-09-21T04:36:36.776Z,2.90
2022-09-21T04:39:06.011Z,3.00
2022-09-21T04:41:34.157Z,4.50
2022-09-21T04:44:03.906Z,6.20
2022-09-21T04:46:31.949Z,8.60
2022-09-21T04:51:28.766Z,6.00
2022-09-21T04:53:56.902Z,4.10
2022-09-21T04:56:25.042Z,2.70
2022-09-21T04:58:53.134Z,2.90
2022-09-21T05:01:22.661Z,2.50
2022-09-21T05:03:50.832Z,2.80
2022-09-21T05:06:18.909Z,2.70
2022-09-21T05:09:04.332Z,2.60
2022-09-21T05:11:33.114Z,2.70
2022-09-21T05:14:01.277Z,2.60
2022-09-21T05:16:30.691Z,2.60
2022-09-21T05:18:58.718Z,2.40
2022-09-21T05:21:26.955Z,2.40
2022-09-21T05:23:55.919Z,2.20
2022-09-21T05:26:24.509Z,2.20
2022-09-21T05:28:53.555Z,2.30
2022-09-21T05:31:39.122Z,2.30
2022-09-21T05:34:21.617Z,2.30
2022-09-21T05:36:57.540Z,2.70
2022-09-21T05:39:26.065Z,3.20
2022-09-21T05:41:55.057Z,3.60
2022-09-21T05:44:24.095Z,3.20
2022-09-21T05:46:58.949Z,3.00
2022-09-21T05:49:39.615Z,3.30
2022-09-21T05:52:14.954Z,3.10
2022-09-21T05:54:54.978Z,3.40
2022-09-21T05:57:31.083Z,3.40
2022-09-21T06:00:05.481Z,3.40
2022-09-21T06:02:58.728Z,3.60
2022-09-21T06:05:27.409Z,3.60
2022-09-21T06:07:55.451Z,3.50
2022-09-21T06:10:25.103Z,3.60
2022-09-21T06:12:53.194Z,3.70
2022-09-21T06:15:21.363Z,4.00
2022-09-21T06:17:50.693Z,4.20
2022-09-21T06:20:19.111Z,4.30
2022-09-21T06:22:47.155Z,4.50
2022-09-21T06:25:15.404Z,4.60
2022-09-21T06:27:43.389Z,4.70
2022-09-21T06:30:12.284Z,4.80
2022-09-21T06:32:40.281Z,4.80
2022-09-21T06:35:10.609Z,4.80
2022-09-21T06:37:40.158Z,4.90
2022-09-21T06:40:09.723Z,5.00
2022-09-21T06:42:37.776Z,5.10
2022-09-21T06:45:06.775Z,5.20
2022-09-21T06:47:34.867Z,5.30
2022-09-21T06:50:03.387Z,5.30
2022-09-21T06:52:33.254Z,5.40
2022-09-21T06:55:01.278Z,5.50
2022-09-21T06:57:29.288Z,5.70
2022-09-21T06:59:57.398Z,5.80
2022-09-21T07:02:25.770Z,5.80
2022-09-21T07:04:54.825Z,6.20
2022-09-21T07:07:22.841Z,6.30
2022-09-21T07:10:13.070Z,6.40
2022-09-21T07:12:41.434Z,6.40
2022-09-21T07:15:11.914Z,6.60
2022-09-21T07:17:40.770Z,6.70
2022-09-21T07:20:09.725Z,6.90
2022-09-21T07:22:37.845Z,7.00
2022-09-21T07:25:07.921Z,7.10
2022-09-21T07:27:36.269Z,7.20
2022-09-21T07:30:04.941Z,7.30
2022-09-21T07:32:33.095Z,7.40
2022-09-21T07:35:01.336Z,7.50
2022-09-21T07:37:29.892Z,7.70
2022-09-21T07:39:57.919Z,7.90
2022-09-21T07:42:27.896Z,8.00
2022-09-21T07:45:03.959Z,8.10
2022-09-21T07:47:32.567Z,8.10
2022-09-21T07:50:00.789Z,8.30
2022-09-21T07:52:29.207Z,8.40
2022-09-21T07:54:57.279Z,8.50
2022-09-21T07:57:43.028Z,8.70
2022-09-21T08:00:14.042Z,8.80
2022-09-21T08:02:46.810Z,8.80
2022-09-21T08:05:16.208Z,8.90
2022-09-21T08:07:44.384Z,8.90
2022-09-21T08:10:13.035Z,9.10
2022-09-21T08:12:41.159Z,9.30
2022-09-21T08:15:30.634Z,9.30
2022-09-21T08:18:00.820Z,9.40
2022-09-21T08:20:29.201Z,9.40
2022-09-21T08:22:57.668Z,9.60
2022-09-21T08:25:25.771Z,9.60
2022-09-21T08:27:58.026Z,9.70
2022-09-21T08:30:27.950Z,9.80
2022-09-21T08:32:56.633Z,10.00
2022-09-21T08:35:26.055Z,10.00
2022-09-21T08:37:55.530Z,9.90
2022-09-21T08:40:23.813Z,10.10
2022-09-21T08:43:00.702Z,10.20
2022-09-21T08:45:35.580Z,10.20
2022-09-21T08:48:07.240Z,10.30
2022-09-21T08:50:42.488Z,10.40
2022-09-21T08:53:15.707Z,10.40
2022-09-21T08:55:43.870Z,10.80
2022-09-21T08:58:23.172Z,10.90
2022-09-21T09:01:02.384Z,10.60
2022-09-21T09:03:50.341Z,10.80
2022-09-21T09:06:28.922Z,10.90
2022-09-21T09:09:12.333Z,11.10
2022-09-21T09:11:53.653Z,10.80
2022-09-21T09:15:00.982Z,11.00
2022-09-21T09:17:41.719Z,11.40
2022-09-21T09:20:15.923Z,11.00
2022-09-21T09:22:49.013Z,10.80
2022-09-21T09:25:21.760Z,11.10
2022-09-21T09:27:54.728Z,11.40
2022-09-21T09:30:25.479Z,11.70
2022-09-21T09:32:59.339Z,11.70
2022-09-21T09:35:29.815Z,11.70
2022-09-21T09:38:06.111Z,11.90
2022-09-21T09:40:51.892Z,12.00
2022-09-21T09:43:30.795Z,12.20
2022-09-21T09:46:06.088Z,12.30
2022-09-21T09:48:55.252Z,12.40
2022-09-21T09:51:23.682Z,12.30
2022-09-21T09:54:01.138Z,12.40
2022-09-21T09:56:29.347Z,12.20
2022-09-21T09:59:03.840Z,12.10
2022-09-21T10:01:42.493Z,12.30
2022-09-21T10:04:12.387Z,12.50
2022-09-21T10:06:45.867Z,12.80
2022-09-21T10:09:27.034Z,12.60
2022-09-21T10:11:58.721Z,12.60
2022-09-21T10:14:30.815Z,12.90
2022-09-21T10:17:08.438Z,13.50
2022-09-21T10:19:38.124Z,13.40
2022-09-21T10:22:06.757Z,13.20
2022-09-21T10:24:40.718Z,13.30
2022-09-21T10:27:14.997Z,13.00
2022-09-21T10:29:45.888Z,12.80
2022-09-21T10:32:25.158Z,13.00
2022-09-21T10:35:18.240Z,13.60
2022-09-21T10:37:49.273Z,14.30
2022-09-21T10:40:27.568Z,13.40
2022-09-21T10:42:58.575Z,14.30
2022-09-21T10:45:28.530Z,14.40
2022-09-21T10:48:00.229Z,14.00
2022-09-21T10:50:31.301Z,13.60
2022-09-21T10:53:03.185Z,13.60
2022-09-21T10:55:33.315Z,14.40
2022-09-21T10:58:01.582Z,14.60
2022-09-21T11:00:38.356Z,14.50
2022-09-21T11:03:39.294Z,13.90
2022-09-21T11:06:14.864Z,13.80
2022-09-21T11:08:49.516Z,14.80
2022-09-21T11:11:40.641Z,15.00
2022-09-21T11:14:17.477Z,15.20
2022-09-21T11:16:52.456Z,14.00
2022-09-21T11:19:29.240Z,14.30
2022-09-21T11:22:03.258Z,15.20
2022-09-21T11:24:37.933Z,15.00
2022-09-21T11:27:12.741Z,15.70
2022-09-21T11:29:48.941Z,16.20
2022-09-21T11:32:30.804Z,15.60
2022-09-21T11:35:27.575Z,15.10
2022-09-21T11:38:12.923Z,15.90
2022-09-21T11:41:09.099Z,16.80
2022-09-21T11:44:01.788Z,16.00
2022-09-21T11:46:36.385Z,16.40
2022-09-21T11:49:18.148Z,15.30
2022-09-21T11:51:59.758Z,15.00
2022-09-21T11:55:01.809Z,15.80
2022-09-21T11:57:36.506Z,15.90
2022-09-21T12:00:16.011Z,15.90
2022-09-21T12:03:10.519Z,16.00
2022-09-21T12:05:44.198Z,16.30
2022-09-21T12:08:34.412Z,16.50
2022-09-21T12:11:14.027Z,16.20
2022-09-21T12:13:50.558Z,16.70
2022-09-21T12:16:25.572Z,17.00
2022-09-21T12:19:00.204Z,16.30
2022-09-21T12:21:32.750Z,16.30
2022-09-21T12:24:04.636Z,15.80
2022-09-21T12:26:38.129Z,15.40
2022-09-21T12:29:13.746Z,15.20
2022-09-21T12:31:51.866Z,15.50
2022-09-21T12:34:25.433Z,15.80
2022-09-21T12:37:00.860Z,16.00
2022-09-21T12:39:37.084Z,16.10
2022-09-21T12:42:17.306Z,16.10
2022-09-21T12:44:54.569Z,15.40
2022-09-21T12:47:30.360Z,16.70
2022-09-21T12:50:03.694Z,17.20
2022-09-21T12:52:34.957Z,17.20
2022-09-21T12:55:23.485Z,17.50
2022-09-21T12:58:14.684Z,17.80
2022-09-21T13:00:50.667Z,16.60
2022-09-21T13:03:28.797Z,16.20
2022-09-21T13:06:32.023Z,15.60
2022-09-21T13:09:05.211Z,15.70
2022-09-21T13:11:36.190Z,16.20
2022-09-21T13:14:05.962Z,16.20
2022-09-21T13:16:36.675Z,15.90
2022-09-21T13:19:18.539Z,15.60
2022-09-21T13:21:46.797Z,15.70
2022-09-21T13:24:28.303Z,16.80
2022-09-21T13:26:59.915Z,17.20
2022-09-21T13:29:32.879Z,16.70
2022-09-21T13:32:03.767Z,17.80
2022-09-21T13:34:36.194Z,16.20
2022-09-21T13:37:34.578Z,17.00
2022-09-21T13:40:39.106Z,17.60
2022-09-21T13:43:54.731Z,18.10
2022-09-21T13:46:49.856Z,18.20
2022-09-21T13:49:40.465Z,17.10
2022-09-21T13:52:22.542Z,17.20
2022-09-21T13:54:53.737Z,17.90
2022-09-21T13:57:28.294Z,18.20
2022-09-21T14:00:35.880Z,18.20
2022-09-21T14:03:07.981Z,18.80
2022-09-21T14:05:42.706Z,18.40
2022-09-21T14:08:23.429Z,18.90
2022-09-21T14:10:55.190Z,18.00
2022-09-21T14:13:29.297Z,18.40
2022-09-21T14:16:38.034Z,18.00
2022-09-21T14:19:44.968Z,17.30
2022-09-21T14:22:38.179Z,20.30
2022-09-21T14:25:30.289Z,19.70
2022-09-21T14:28:06.952Z,20.40
2022-09-21T14:30:38.115Z,20.00
2022-09-21T14:33:21.027Z,19.30
2022-09-21T14:35:49.645Z,19.60
2022-09-21T14:38:24.289Z,18.60
2022-09-21T14:40:55.752Z,17.50
2022-09-21T14:43:29.014Z,17.70
2022-09-21T14:46:22.352Z,17.70
2022-09-21T14:49:03.241Z,16.80
2022-09-21T14:51:39.277Z,16.80
2022-09-21T14:54:35.299Z,16.90
2022-09-21T14:57:16.734Z,16.70
2022-09-21T14:59:59.857Z,16.50
2022-09-21T15:02:30.289Z,17.80
2022-09-21T15:05:19.399Z,18.10
2022-09-21T15:08:12.848Z,18.20
2022-09-21T15:10:57.978Z,18.30
2022-09-21T15:13:38.910Z,17.30
2022-09-21T15:16:26.585Z,18.20
2022-09-21T15:19:11.522Z,18.80
2022-09-21T15:21:43.667Z,19.30
2022-09-21T15:24:20.376Z,18.70
2022-09-21T15:26:51.618Z,19.40
2022-09-21T15:29:26.936Z,18.50
2022-09-21T15:31:55.920Z,19.10
2022-09-21T15:34:24.917Z,18.60
2022-09-21T15:36:53.630Z,18.70
2022-09-21T15:39:24.298Z,18.20
2022-09-21T15:42:17.966Z,19.10
2022-09-21T15:44:48.660Z,18.80
2022-09-21T15:47:19.970Z,19.30
2022-09-21T15:49:48.231Z,19.30
2022-09-21T15:52:24.128Z,18.90
2022-09-21T15:54:57.497Z,18.40
2022-09-21T15:57:36.850Z,19.00
2022-09-21T16:00:18.639Z,18.90
2022-09-21T16:03:06.896Z,18.60
2022-09-21T16:05:45.096Z,18.40
2022-09-21T16:08:31.146Z,18.20
2022-09-21T16:11:23.098Z,18.70
2022-09-21T16:14:17.574Z,18.40
2022-09-21T16:17:25.909Z,19.10
2022-09-21T16:20:20.085Z,18.20
2022-09-21T16:22:50.410Z,18.30
2022-09-21T16:25:37.794Z,18.80
2022-09-21T16:28:24.965Z,18.70
2022-09-21T16:30:57.320Z,18.40
2022-09-21T16:33:36.845Z,17.40
2022-09-21T16:36:06.452Z,17.70
2022-09-21T16:38:34.448Z,17.50
2022-09-21T16:41:03.449Z,17.80
2022-09-21T16:43:31.517Z,17.80
2022-09-21T16:46:03.496Z,18.10
2022-09-21T16:48:31.511Z,17.60
2022-09-21T16:51:00.491Z,17.10
2022-09-21T16:53:28.581Z,17.00
2022-09-21T16:55:57.019Z,17.10
2022-09-21T16:58:26.079Z,16.80
2022-09-21T17:00:56.303Z,16.70
2022-09-21T17:03:28.093Z,16.50
2022-09-21T17:05:57.290Z,16.30
2022-09-21T17:08:26.484Z,16.10
2022-09-21T17:10:54.832Z,15.90
2022-09-21T17:13:23.445Z,15.60
2022-09-21T17:15:52.067Z,15.20
2022-09-21T17:18:20.432Z,14.50
2022-09-21T17:20:50.004Z,14.60
2022-09-21T17:23:19.083Z,14.20
2022-09-21T17:25:47.158Z,14.20
2022-09-21T17:28:20.941Z,13.90
2022-09-21T17:30:49.570Z,13.60
2022-09-21T17:33:21.467Z,13.40
2022-09-21T17:35:51.093Z,13.10
2022-09-21T17:38:19.135Z,13.10
2022-09-21T17:40:47.699Z,12.70
2022-09-21T17:43:33.198Z,12.10
2022-09-21T17:46:08.303Z,11.70
2022-09-21T17:48:39.218Z,11.50
2022-09-21T17:51:10.035Z,11.60
2022-09-21T17:53:37.628Z,11.00
2022-09-21T17:56:29.141Z,11.10
2022-09-21T17:59:01.944Z,10.70
2022-09-21T18:01:34.230Z,10.80
2022-09-21T18:04:03.161Z,10.60
2022-09-21T18:06:34.054Z,10.80
2022-09-21T18:09:03.124Z,10.80
2022-09-21T18:11:56.975Z,10.60
2022-09-21T18:14:33.138Z,11.00
2022-09-21T18:17:16.906Z,10.70
2022-09-21T18:19:57.359Z,10.90
2022-09-21T18:22:48.623Z,10.10
2022-09-21T18:25:22.376Z,10.60
2022-09-21T18:27:52.156Z,10.20
2022-09-21T18:30:20.600Z,10.20
2022-09-21T18:32:58.483Z,10.00
2022-09-21T18:35:54.649Z,9.80
2022-09-21T18:38:31.792Z,9.50
2022-09-21T18:41:12.577Z,9.10
2022-09-21T18:44:04.204Z,8.90
2022-09-21T18:46:40.798Z,9.30
2022-09-21T18:49:17.783Z,9.40
2022-09-21T18:51:52.850Z,9.30
2022-09-21T18:54:24.367Z,8.80
2022-09-21T18:56:52.827Z,8.80
2022-09-21T18:59:21.490Z,8.70
2022-09-21T19:01:50.669Z,9.30
2022-09-21T19:04:19.327Z,9.40
2022-09-21T19:06:54.323Z,9.50
2022-09-21T19:09:38.391Z,8.80
2022-09-21T19:12:18.625Z,8.40
2022-09-21T19:14:58.973Z,8.60
2022-09-21T19:17:41.851Z,8.90
2022-09-21T19:20:41.992Z,8.80
2022-09-21T19:23:21.894Z,8.80
2022-09-21T19:25:54.167Z,8.80
2022-09-21T19:28:41.611Z,8.40
2022-09-21T19:31:12.528Z,8.40
2022-09-21T19:33:56.710Z,8.30
2022-09-21T19:36:25.159Z,8.50
2022-09-21T19:38:54.282Z,8.10
2022-09-21T19:41:42.277Z,8.00
2022-09-21T19:44:32.873Z,8.50
2022-09-21T19:47:07.508Z,8.40
2022-09-21T19:49:45.897Z,8.10
2022-09-21T19:52:17.462Z,8.00
2022-09-21T19:55:03.811Z,7.80
2022-09-21T19:57:52.710Z,7.60
2022-09-21T20:00:22.768Z,8.20
2022-09-21T20:03:02.549Z,8.10
2022-09-21T20:05:40.123Z,7.60
2022-09-21T20:08:17.119Z,7.60
2022-09-21T20:10:58.494Z,7.30
2022-09-21T20:13:42.912Z,7.20
2022-09-21T20:16:31.132Z,7.20
2022-09-21T20:19:07.573Z,7.10
2022-09-21T20:21:40.196Z,7.10
2022-09-21T20:24:19.232Z,7.00
2022-09-21T20:26:49.947Z,7.10
2022-09-21T20:29:20.044Z,7.00
2022-09-21T20:31:49.903Z,6.90
2022-09-21T20:34:18.229Z,7.10
2022-09-21T20:36:46.749Z,6.90
2022-09-21T20:39:15.037Z,6.90
2022-09-21T20:41:43.115Z,7.00
2022-09-21T20:44:14.280Z,6.90
2022-09-21T20:46:43.667Z,6.80
2022-09-21T20:49:15.252Z,7.20
2022-09-21T20:51:43.384Z,7.30
2022-09-21T20:54:12.194Z,6.90
2022-09-21T20:56:40.548Z,6.70
2022-09-21T20:59:08.794Z,6.90
2022-09-21T21:01:36.872Z,6.80
2022-09-21T21:04:06.365Z,6.70
2022-09-21T21:06:34.999Z,6.60
2022-09-21T21:09:03.246Z,6.70
2022-09-21T21:11:31.451Z,6.50
2022-09-21T21:13:59.445Z,6.40
2022-09-21T21:16:27.544Z,6.30
2022-09-21T21:18:56.356Z,6.30
2022-09-21T21:21:26.582Z,6.30
2022-09-21T21:24:12.578Z,6.20
2022-09-21T21:29:28.680Z,6.20
2022-09-21T21:31:56.743Z,6.10
2022-09-21T21:34:24.890Z,6.10
2022-09-21T21:36:55.187Z,6.00
2022-09-21T21:39:23.252Z,6.00
2022-09-21T21:41:51.236Z,6.00
2022-09-21T21:44:19.262Z,5.90
2022-09-21T21:46:47.337Z,5.80
2022-09-21T21:49:15.545Z,5.80
2022-09-21T21:51:44.600Z,5.70
2022-09-21T21:54:14.829Z,5.40
2022-09-21T21:56:42.865Z,5.30
2022-09-21T21:59:15.434Z,5.10
2022-09-21T22:01:46.053Z,4.90
2022-09-21T22:04:14.191Z,4.80
2022-09-21T22:06:42.327Z,4.80
2022-09-21T22:09:14.651Z,4.90
2022-09-21T22:11:42.880Z,4.80
2022-09-21T22:14:11.588Z,4.90
2022-09-21T22:16:39.680Z,4.80
2022-09-21T22:19:09.204Z,4.90
2022-09-21T22:21:42.354Z,4.70
2022-09-21T22:24:10.977Z,4.70
2022-09-21T22:26:42.028Z,4.80
2022-09-21T22:29:11.732Z,4.80
2022-09-21T22:31:42.210Z,4.90
2022-09-21T22:34:10.782Z,5.10
2022-09-21T22:36:39.295Z,5.00
2022-09-21T22:39:08.677Z,5.10
2022-09-21T22:41:38.455Z,5.10
2022-09-21T22:44:08.510Z,5.20
2022-09-21T22:46:37.286Z,5.20
2022-09-21T22:49:05.741Z,5.10
2022-09-21T22:51:33.838Z,5.00
2022-09-21T22:54:02.119Z,5.00
2022-09-21T22:56:32.176Z,4.90
2022-09-21T22:59:05.227Z,4.80
2022-09-21T23:01:36.460Z,4.60
2022-09-21T23:04:07.001Z,4.30
2022-09-21T23:06:36.781Z,4.30
2022-09-21T23:09:07.624Z,4.30
2022-09-21T23:11:37.595Z,4.50
2022-09-21T23:14:06.211Z,4.60
2022-09-21T23:16:35.896Z,4.50
2022-09-21T23:19:03.960Z,4.20
2022-09-21T23:21:32.579Z,4.00
2022-09-21T23:24:02.439Z,3.80
2022-09-21T23:26:33.142Z,3.80
2022-09-21T23:29:04.173Z,3.80
2022-09-21T23:31:33.334Z,3.90
2022-09-21T23:34:07.366Z,3.80
2022-09-21T23:36:37.237Z,3.40
2022-09-21T23:39:07.096Z,3.10
2022-09-21T23:41:36.937Z,3.00
2022-09-21T23:44:05.946Z,3.10
2022-09-21T23:46:36.641Z,2.90
2022-09-21T23:49:06.805Z,2.90
2022-09-21T23:51:35.440Z,2.90
2022-09-21T23:54:03.921Z,2.70
2022-09-21T23:56:32.787Z,2.80
2022-09-21T23:59:01.662Z,2.80
